sensor_id;sensor_type;location;lat;lon;timestamp;temperature;humidity
17986;DHT22;9118;48.122;11.546;2022-11-13T00:02:12;7.40;99.90
17986;DHT22;9118;48.122;11.546;2022-11-13T00:04:42;7.40;99.90
17986;DHT22;9118;48.122;11.546;2022-11-13T00:07:09;7.30;99.90
17986;DHT22;9118;48.122;11.546;2022-11-13T00:09:37;7.30;99.90
17986;DHT22;9118;48.122;11.546;2022-11-13T00:12:04;7.30;99.90
17986;DHT22;9118;48.122;11.546;2022-11-13T00:14:32;7.30;99.90
17986;DHT22;9118;48.122;11.546;2022-11-13T00:17:00;7.30;99.90
17986;DHT22;9118;48.122;11.546;2022-11-13T00:19:27;7.30;99.90
17986;DHT22;9118;48.122;11.546;2022-11-13T00:21:56;7.30;99.90
17986;DHT22;9118;48.122;11.546;2022-11-13T00:24:24;7.30;99.90
17986;DHT22;9118;48.122;11.546;2022-11-13T00:26:52;7.30;99.90
17986;DHT22;9118;48.122;11.546;2022-11-13T00:29:19;7.30;99.90
17986;DHT22;9118;48.122;11.546;2022-11-13T00:31:47;7.30;99.90
17986;DHT22;9118;48.122;11.546;2022-11-13T00:34:15;7.30;99.90
17986;DHT22;9118;48.122;11.546;2022-11-13T00:36:42;7.30;99.90
17986;DHT22;9118;48.122;11.546;2022-11-13T00:39:11;7.30;99.90
17986;DHT22;9118;48.122;11.546;2022-11-13T00:41:38;7.30;99.90
17986;DHT22;9118;48.122;11.546;2022-11-13T00:44:06;7.30;99.90
17986;DHT22;9118;48.122;11.546;2022-11-13T00:46:33;7.30;99.90
17986;DHT22;9118;48.122;11.546;2022-11-13T00:49:01;7.20;99.90
17986;DHT22;9118;48.122;11.546;2022-11-13T00:51:29;7.20;99.90
17986;DHT22;9118;48.122;11.546;2022-11-13T00:53:57;7.20;99.90
17986;DHT22;9118;48.122;11.546;2022-11-13T00:56:27;7.20;99.90
17986;DHT22;9118;48.122;11.546;2022-11-13T00:58:55;7.30;99.90
17986;DHT22;9118;48.122;11.546;2022-11-13T01:01:23;7.20;99.90
17986;DHT22;9118;48.122;11.546;2022-11-13T01:03:50;7.10;99.90
17986;DHT22;9118;48.122;11.546;2022-11-13T01:06:20;7.20;99.90
17986;DHT22;9118;48.122;11.546;2022-11-13T01:08:48;7.10;99.90
17986;DHT22;9118;48.122;11.546;2022-11-13T01:11:17;7.10;99.90
17986;DHT22;9118;48.122;11.546;2022-11-13T01:13:48;7.10;99.90
17986;DHT22;9118;48.122;11.546;2022-11-13T01:16:17;7.10;99.90
17986;DHT22;9118;48.122;11.546;2022-11-13T01:18:45;7.00;99.90
17986;DHT22;9118;48.122;11.546;2022-11-13T01:21:14;7.00;99.90
17986;DHT22;9118;48.122;11.546;2022-11-13T01:23:43;7.00;99.90
17986;DHT22;9118;48.122;11.546;2022-11-13T01:26:13;6.90;99.90
17986;DHT22;9118;48.122;11.546;2022-11-13T01:28:43;6.90;99.90
17986;DHT22;9118;48.122;11.546;2022-11-13T01:31:13;7.10;99.90
17986;DHT22;9118;48.122;11.546;2022-11-13T01:33:41;6.80;99.90
17986;DHT22;9118;48.122;11.546;2022-11-13T01:36:12;6.80;99.90
17986;DHT22;9118;48.122;11.546;2022-11-13T01:38:43;6.90;99.90
17986;DHT22;9118;48.122;11.546;2022-11-13T01:41:16;6.90;99.90
17986;DHT22;9118;48.122;11.546;2022-11-13T01:43:43;6.90;99.90
17986;DHT22;9118;48.122;11.546;2022-11-13T01:46:23;7.00;99.90
17986;DHT22;9118;48.122;11.546;2022-11-13T01:48:57;6.90;99.90
17986;DHT22;9118;48.122;11.546;2022-11-13T01:51:45;6.90;99.90
17986;DHT22;9118;48.122;11.546;2022-11-13T01:54:18;6.90;99.90
17986;DHT22;9118;48.122;11.546;2022-11-13T01:56:47;6.90;99.90
17986;DHT22;9118;48.122;11.546;2022-11-13T01:59:17;6.90;99.90
17986;DHT22;9118;48.122;11.546;2022-11-13T02:01:46;6.90;99.90
17986;DHT22;9118;48.122;11.546;2022-11-13T02:04:14;6.90;99.90
17986;DHT22;9118;48.122;11.546;2022-11-13T02:06:44;6.80;99.90
17986;DHT22;9118;48.122;11.546;2022-11-13T02:09:15;6.80;99.90
17986;DHT22;9118;48.122;11.546;2022-11-13T02:11:44;6.80;99.90
17986;DHT22;9118;48.122;11.546;2022-11-13T02:14:13;6.80;99.90
17986;DHT22;9118;48.122;11.546;2022-11-13T02:16:42;6.80;99.90
17986;DHT22;9118;48.122;11.546;2022-11-13T02:19:15;6.80;99.90
17986;DHT22;9118;48.122;11.546;2022-11-13T02:21:49;6.80;99.90
17986;DHT22;9118;48.122;11.546;2022-11-13T02:24:25;6.70;99.90
17986;DHT22;9118;48.122;11.546;2022-11-13T02:26:57;6.70;99.90
17986;DHT22;9118;48.122;11.546;2022-11-13T02:29:27;6.70;99.90
17986;DHT22;9118;48.122;11.546;2022-11-13T02:31:56;6.70;99.90
17986;DHT22;9118;48.122;11.546;2022-11-13T02:34:23;6.80;99.90
17986;DHT22;9118;48.122;11.546;2022-11-13T02:36:51;6.70;99.90
17986;DHT22;9118;48.122;11.546;2022-11-13T02:39:19;6.80;99.90
17986;DHT22;9118;48.122;11.546;2022-11-13T02:41:48;6.80;99.90
17986;DHT22;9118;48.122;11.546;2022-11-13T02:44:15;6.70;99.90
17986;DHT22;9118;48.122;11.546;2022-11-13T02:46:43;6.70;99.90
17986;DHT22;9118;48.122;11.546;2022-11-13T02:49:14;6.60;99.90
17986;DHT22;9118;48.122;11.546;2022-11-13T02:51:41;7.30;99.90
17986;DHT22;9118;48.122;11.546;2022-11-13T02:54:09;6.60;99.90
17986;DHT22;9118;48.122;11.546;2022-11-13T02:56:36;6.60;99.90
17986;DHT22;9118;48.122;11.546;2022-11-13T02:59:05;6.60;99.90
17986;DHT22;9118;48.122;11.546;2022-11-13T03:01:33;6.60;99.90
17986;DHT22;9118;48.122;11.546;2022-11-13T03:04:00;6.70;99.90
17986;DHT22;9118;48.122;11.546;2022-11-13T03:06:27;6.70;99.90
17986;DHT22;9118;48.122;11.546;2022-11-13T03:08:55;6.70;99.90
17986;DHT22;9118;48.122;11.546;2022-11-13T03:11:22;6.60;99.90
17986;DHT22;9118;48.122;11.546;2022-11-13T03:13:50;6.60;99.90
17986;DHT22;9118;48.122;11.546;2022-11-13T03:16:19;6.60;99.90
17986;DHT22;9118;48.122;11.546;2022-11-13T03:18:46;6.90;99.90
17986;DHT22;9118;48.122;11.546;2022-11-13T03:21:14;6.60;99.90
17986;DHT22;9118;48.122;11.546;2022-11-13T03:23:42;6.60;99.90
17986;DHT22;9118;48.122;11.546;2022-11-13T03:26:12;6.60;99.90
17986;DHT22;9118;48.122;11.546;2022-11-13T03:28:39;6.60;99.90
17986;DHT22;9118;48.122;11.546;2022-11-13T03:31:07;6.60;99.90
17986;DHT22;9118;48.122;11.546;2022-11-13T03:33:36;6.50;99.90
17986;DHT22;9118;48.122;11.546;2022-11-13T03:36:04;6.40;99.90
17986;DHT22;9118;48.122;11.546;2022-11-13T03:38:32;6.50;99.90
17986;DHT22;9118;48.122;11.546;2022-11-13T03:40:59;6.50;99.90
17986;DHT22;9118;48.122;11.546;2022-11-13T03:43:27;6.40;99.90
17986;DHT22;9118;48.122;11.546;2022-11-13T03:45:54;6.40;99.90
17986;DHT22;9118;48.122;11.546;2022-11-13T03:48:22;6.40;99.90
17986;DHT22;9118;48.122;11.546;2022-11-13T03:50:53;6.40;99.90
17986;DHT22;9118;48.122;11.546;2022-11-13T03:53:20;6.40;99.90
17986;DHT22;9118;48.122;11.546;2022-11-13T03:55:48;6.50;99.90
17986;DHT22;9118;48.122;11.546;2022-11-13T03:58:16;6.40;99.90
17986;DHT22;9118;48.122;11.546;2022-11-13T04:00:44;6.40;99.90
17986;DHT22;9118;48.122;11.546;2022-11-13T04:03:14;6.40;99.90
17986;DHT22;9118;48.122;11.546;2022-11-13T04:05:42;6.40;99.90
17986;DHT22;9118;48.122;11.546;2022-11-13T04:08:11;6.40;99.90
17986;DHT22;9118;48.122;11.546;2022-11-13T04:10:38;6.30;99.90
17986;DHT22;9118;48.122;11.546;2022-11-13T04:13:05;6.30;99.90
17986;DHT22;9118;48.122;11.546;2022-11-13T04:15:33;6.40;99.90
17986;DHT22;9118;48.122;11.546;2022-11-13T04:18:01;6.40;99.90
17986;DHT22;9118;48.122;11.546;2022-11-13T04:20:28;6.40;99.90
17986;DHT22;9118;48.122;11.546;2022-11-13T04:22:56;6.40;99.90
17986;DHT22;9118;48.122;11.546;2022-11-13T04:25:25;6.30;99.90
17986;DHT22;9118;48.122;11.546;2022-11-13T04:27:52;6.30;99.90
17986;DHT22;9118;48.122;11.546;2022-11-13T04:30:20;6.30;99.90
17986;DHT22;9118;48.122;11.546;2022-11-13T04:32:48;6.30;99.90
17986;DHT22;9118;48.122;11.546;2022-11-13T04:35:15;6.30;99.90
17986;DHT22;9118;48.122;11.546;2022-11-13T04:37:43;6.30;99.90
17986;DHT22;9118;48.122;11.546;2022-11-13T04:40:11;6.20;99.90
17986;DHT22;9118;48.122;11.546;2022-11-13T04:42:39;6.20;99.90
17986;DHT22;9118;48.122;11.546;2022-11-13T04:45:16;6.20;99.90
17986;DHT22;9118;48.122;11.546;2022-11-13T04:47:44;6.20;99.90
17986;DHT22;9118;48.122;11.546;2022-11-13T04:50:13;6.20;99.90
17986;DHT22;9118;48.122;11.546;2022-11-13T04:52:41;6.20;99.90
17986;DHT22;9118;48.122;11.546;2022-11-13T04:55:09;6.20;99.90
17986;DHT22;9118;48.122;11.546;2022-11-13T04:57:39;6.20;99.90
17986;DHT22;9118;48.122;11.546;2022-11-13T05:00:08;6.20;99.90
17986;DHT22;9118;48.122;11.546;2022-11-13T05:02:36;6.20;99.90
17986;DHT22;9118;48.122;11.546;2022-11-13T05:05:05;6.30;99.90
17986;DHT22;9118;48.122;11.546;2022-11-13T05:07:32;6.20;99.90
17986;DHT22;9118;48.122;11.546;2022-11-13T05:10:00;6.20;99.90
17986;DHT22;9118;48.122;11.546;2022-11-13T05:12:27;6.10;99.90
17986;DHT22;9118;48.122;11.546;2022-11-13T05:14:56;6.10;99.90
17986;DHT22;9118;48.122;11.546;2022-11-13T05:17:23;6.10;99.90
17986;DHT22;9118;48.122;11.546;2022-11-13T05:19:50;6.00;99.90
17986;DHT22;9118;48.122;11.546;2022-11-13T05:22:18;6.00;99.90
17986;DHT22;9118;48.122;11.546;2022-11-13T05:24:45;6.00;99.90
17986;DHT22;9118;48.122;11.546;2022-11-13T05:27:12;6.00;99.90
17986;DHT22;9118;48.122;11.546;2022-11-13T05:29:40;6.00;99.90
17986;DHT22;9118;48.122;11.546;2022-11-13T05:32:10;5.90;99.90
17986;DHT22;9118;48.122;11.546;2022-11-13T05:34:38;5.90;99.90
17986;DHT22;9118;48.122;11.546;2022-11-13T05:37:07;5.90;99.90
17986;DHT22;9118;48.122;11.546;2022-11-13T05:39:36;5.90;99.90
17986;DHT22;9118;48.122;11.546;2022-11-13T05:42:03;5.90;99.90
17986;DHT22;9118;48.122;11.546;2022-11-13T05:44:31;5.90;99.90
17986;DHT22;9118;48.122;11.546;2022-11-13T05:46:59;5.90;99.90
17986;DHT22;9118;48.122;11.546;2022-11-13T05:49:27;5.90;99.90
17986;DHT22;9118;48.122;11.546;2022-11-13T05:51:55;5.80;99.90
17986;DHT22;9118;48.122;11.546;2022-11-13T05:54:23;5.80;99.90
17986;DHT22;9118;48.122;11.546;2022-11-13T05:56:50;5.80;99.90
17986;DHT22;9118;48.122;11.546;2022-11-13T05:59:18;5.80;99.90
17986;DHT22;9118;48.122;11.546;2022-11-13T06:01:45;5.70;99.90
17986;DHT22;9118;48.122;11.546;2022-11-13T06:04:13;5.80;99.90
17986;DHT22;9118;48.122;11.546;2022-11-13T06:06:42;5.80;99.90
17986;DHT22;9118;48.122;11.546;2022-11-13T06:09:13;5.30;99.90
17986;DHT22;9118;48.122;11.546;2022-11-13T06:11:42;5.80;99.90
17986;DHT22;9118;48.122;11.546;2022-11-13T06:14:10;5.70;99.90
17986;DHT22;9118;48.122;11.546;2022-11-13T06:16:41;5.70;99.90
17986;DHT22;9118;48.122;11.546;2022-11-13T06:19:10;5.60;99.90
17986;DHT22;9118;48.122;11.546;2022-11-13T06:21:39;5.70;99.90
17986;DHT22;9118;48.122;11.546;2022-11-13T06:24:11;5.60;99.90
17986;DHT22;9118;48.122;11.546;2022-11-13T06:26:39;5.60;99.90
17986;DHT22;9118;48.122;11.546;2022-11-13T06:29:08;5.60;99.90
17986;DHT22;9118;48.122;11.546;2022-11-13T06:31:37;5.60;99.90
17986;DHT22;9118;48.122;11.546;2022-11-13T06:34:05;5.60;99.90
17986;DHT22;9118;48.122;11.546;2022-11-13T06:36:35;5.50;99.90
17986;DHT22;9118;48.122;11.546;2022-11-13T06:39:05;5.50;99.90
17986;DHT22;9118;48.122;11.546;2022-11-13T06:41:36;5.50;99.90
17986;DHT22;9118;48.122;11.546;2022-11-13T06:44:04;5.50;99.90
17986;DHT22;9118;48.122;11.546;2022-11-13T06:46:32;5.50;99.90
17986;DHT22;9118;48.122;11.546;2022-11-13T06:48:59;5.50;99.90
17986;DHT22;9118;48.122;11.546;2022-11-13T06:51:28;5.50;99.90
17986;DHT22;9118;48.122;11.546;2022-11-13T06:53:56;5.50;99.90
17986;DHT22;9118;48.122;11.546;2022-11-13T06:56:24;5.70;99.90
17986;DHT22;9118;48.122;11.546;2022-11-13T06:58:54;5.50;99.90
17986;DHT22;9118;48.122;11.546;2022-11-13T07:01:24;5.60;99.90
17986;DHT22;9118;48.122;11.546;2022-11-13T07:03:52;5.70;99.90
17986;DHT22;9118;48.122;11.546;2022-11-13T07:06:22;5.60;99.90
17986;DHT22;9118;48.122;11.546;2022-11-13T07:08:51;5.60;99.90
17986;DHT22;9118;48.122;11.546;2022-11-13T07:11:22;5.60;99.90
17986;DHT22;9118;48.122;11.546;2022-11-13T07:13:50;5.60;99.90
17986;DHT22;9118;48.122;11.546;2022-11-13T07:16:20;5.60;99.90
17986;DHT22;9118;48.122;11.546;2022-11-13T07:18:52;5.60;99.90
17986;DHT22;9118;48.122;11.546;2022-11-13T07:21:20;5.70;99.90
17986;DHT22;9118;48.122;11.546;2022-11-13T07:23:49;5.60;99.90
17986;DHT22;9118;48.122;11.546;2022-11-13T07:26:17;5.60;99.90
17986;DHT22;9118;48.122;11.546;2022-11-13T07:28:45;5.70;99.90
17986;DHT22;9118;48.122;11.546;2022-11-13T07:31:13;5.70;99.90
17986;DHT22;9118;48.122;11.546;2022-11-13T07:33:43;5.80;99.90
17986;DHT22;9118;48.122;11.546;2022-11-13T07:36:10;5.80;99.90
17986;DHT22;9118;48.122;11.546;2022-11-13T07:38:38;5.80;99.90
17986;DHT22;9118;48.122;11.546;2022-11-13T07:41:06;5.80;99.90
17986;DHT22;9118;48.122;11.546;2022-11-13T07:43:34;5.80;99.90
17986;DHT22;9118;48.122;11.546;2022-11-13T07:46:01;5.80;99.90
17986;DHT22;9118;48.122;11.546;2022-11-13T07:48:29;5.80;99.90
17986;DHT22;9118;48.122;11.546;2022-11-13T07:51:00;5.80;99.90
17986;DHT22;9118;48.122;11.546;2022-11-13T07:53:28;5.80;99.90
17986;DHT22;9118;48.122;11.546;2022-11-13T07:55:59;5.80;99.90
17986;DHT22;9118;48.122;11.546;2022-11-13T07:58:27;5.90;99.90
17986;DHT22;9118;48.122;11.546;2022-11-13T08:00:54;6.00;99.90
17986;DHT22;9118;48.122;11.546;2022-11-13T08:03:21;6.10;99.90
17986;DHT22;9118;48.122;11.546;2022-11-13T08:05:49;6.10;99.90
17986;DHT22;9118;48.122;11.546;2022-11-13T08:08:18;6.10;99.90
17986;DHT22;9118;48.122;11.546;2022-11-13T08:10:45;6.20;99.90
17986;DHT22;9118;48.122;11.546;2022-11-13T08:13:18;6.20;99.90
17986;DHT22;9118;48.122;11.546;2022-11-13T08:15:46;6.30;99.90
17986;DHT22;9118;48.122;11.546;2022-11-13T08:18:14;6.30;99.90
17986;DHT22;9118;48.122;11.546;2022-11-13T08:20:41;6.30;99.90
17986;DHT22;9118;48.122;11.546;2022-11-13T08:23:08;6.40;99.90
17986;DHT22;9118;48.122;11.546;2022-11-13T08:25:37;6.40;99.90
17986;DHT22;9118;48.122;11.546;2022-11-13T08:28:04;6.40;99.90
17986;DHT22;9118;48.122;11.546;2022-11-13T08:30:32;6.50;99.90
17986;DHT22;9118;48.122;11.546;2022-11-13T08:32:59;6.60;99.90
17986;DHT22;9118;48.122;11.546;2022-11-13T08:35:28;6.60;99.90
17986;DHT22;9118;48.122;11.546;2022-11-13T08:38:00;6.50;99.90
17986;DHT22;9118;48.122;11.546;2022-11-13T08:40:28;6.60;99.90
17986;DHT22;9118;48.122;11.546;2022-11-13T08:43:00;6.60;99.90
17986;DHT22;9118;48.122;11.546;2022-11-13T08:45:29;6.50;99.90
17986;DHT22;9118;48.122;11.546;2022-11-13T08:47:59;6.60;99.90
17986;DHT22;9118;48.122;11.546;2022-11-13T08:50:27;6.40;99.90
17986;DHT22;9118;48.122;11.546;2022-11-13T08:52:56;6.50;99.90
17986;DHT22;9118;48.122;11.546;2022-11-13T08:55:24;6.50;99.90
17986;DHT22;9118;48.122;11.546;2022-11-13T08:57:52;6.40;99.90
17986;DHT22;9118;48.122;11.546;2022-11-13T09:00:22;6.40;99.90
17986;DHT22;9118;48.122;11.546;2022-11-13T09:02:53;6.40;99.90
17986;DHT22;9118;48.122;11.546;2022-11-13T09:05:21;6.40;99.90
17986;DHT22;9118;48.122;11.546;2022-11-13T09:07:49;6.40;99.90
17986;DHT22;9118;48.122;11.546;2022-11-13T09:10:17;6.40;99.90
17986;DHT22;9118;48.122;11.546;2022-11-13T09:12:44;6.40;99.90
17986;DHT22;9118;48.122;11.546;2022-11-13T09:15:12;6.50;99.90
17986;DHT22;9118;48.122;11.546;2022-11-13T09:17:41;6.60;99.90
17986;DHT22;9118;48.122;11.546;2022-11-13T09:20:11;6.70;99.90
17986;DHT22;9118;48.122;11.546;2022-11-13T09:22:38;6.40;99.90
17986;DHT22;9118;48.122;11.546;2022-11-13T09:25:07;6.70;99.90
17986;DHT22;9118;48.122;11.546;2022-11-13T09:27:34;6.70;99.90
17986;DHT22;9118;48.122;11.546;2022-11-13T09:30:02;6.80;99.90
17986;DHT22;9118;48.122;11.546;2022-11-13T09:32:30;6.80;99.90
17986;DHT22;9118;48.122;11.546;2022-11-13T09:34:58;6.90;99.90
17986;DHT22;9118;48.122;11.546;2022-11-13T09:37:26;6.90;99.90
17986;DHT22;9118;48.122;11.546;2022-11-13T09:39:53;6.90;99.90
17986;DHT22;9118;48.122;11.546;2022-11-13T09:42:22;6.90;99.90
17986;DHT22;9118;48.122;11.546;2022-11-13T09:44:56;7.00;99.90
17986;DHT22;9118;48.122;11.546;2022-11-13T09:47:30;7.00;99.90
17986;DHT22;9118;48.122;11.546;2022-11-13T09:50:04;7.10;99.90
17986;DHT22;9118;48.122;11.546;2022-11-13T09:52:35;8.30;99.90
17986;DHT22;9118;48.122;11.546;2022-11-13T09:55:04;7.20;99.90
17986;DHT22;9118;48.122;11.546;2022-11-13T09:57:38;7.20;99.90
17986;DHT22;9118;48.122;11.546;2022-11-13T10:00:11;7.20;99.90
17986;DHT22;9118;48.122;11.546;2022-11-13T10:02:49;7.20;99.90
17986;DHT22;9118;48.122;11.546;2022-11-13T10:05:26;7.20;99.90
17986;DHT22;9118;48.122;11.546;2022-11-13T10:08:00;7.20;99.90
17986;DHT22;9118;48.122;11.546;2022-11-13T10:10:48;7.10;99.90
17986;DHT22;9118;48.122;11.546;2022-11-13T10:13:22;7.00;99.90
17986;DHT22;9118;48.122;11.546;2022-11-13T10:15:52;6.30;99.90
17986;DHT22;9118;48.122;11.546;2022-11-13T10:18:27;7.00;99.90
17986;DHT22;9118;48.122;11.546;2022-11-13T10:21:06;7.10;99.90
17986;DHT22;9118;48.122;11.546;2022-11-13T10:23:37;7.20;99.90
17986;DHT22;9118;48.122;11.546;2022-11-13T10:26:15;7.30;99.90
17986;DHT22;9118;48.122;11.546;2022-11-13T10:28:43;7.30;99.90
17986;DHT22;9118;48.122;11.546;2022-11-13T10:31:12;7.30;99.90
17986;DHT22;9118;48.122;11.546;2022-11-13T10:33:40;7.50;99.90
17986;DHT22;9118;48.122;11.546;2022-11-13T10:36:16;7.60;99.90
17986;DHT22;9118;48.122;11.546;2022-11-13T10:38:49;7.60;99.90
17986;DHT22;9118;48.122;11.546;2022-11-13T10:41:21;7.70;99.90
17986;DHT22;9118;48.122;11.546;2022-11-13T10:43:59;7.80;99.90
17986;DHT22;9118;48.122;11.546;2022-11-13T10:46:29;7.80;99.90
17986;DHT22;9118;48.122;11.546;2022-11-13T10:49:09;7.80;99.90
17986;DHT22;9118;48.122;11.546;2022-11-13T10:51:41;7.80;99.90
17986;DHT22;9118;48.122;11.546;2022-11-13T10:54:23;7.70;99.90
17986;DHT22;9118;48.122;11.546;2022-11-13T10:56:58;7.60;99.90
17986;DHT22;9118;48.122;11.546;2022-11-13T10:59:37;7.60;99.90
17986;DHT22;9118;48.122;11.546;2022-11-13T11:02:14;7.60;99.90
17986;DHT22;9118;48.122;11.546;2022-11-13T11:04:43;7.40;99.90
17986;DHT22;9118;48.122;11.546;2022-11-13T11:07:14;7.10;99.90
17986;DHT22;9118;48.122;11.546;2022-11-13T11:09:44;6.70;99.90
17986;DHT22;9118;48.122;11.546;2022-11-13T11:12:14;6.50;99.90
17986;DHT22;9118;48.122;11.546;2022-11-13T11:14:53;6.50;99.90
17986;DHT22;9118;48.122;11.546;2022-11-13T11:17:25;6.60;99.90
17986;DHT22;9118;48.122;11.546;2022-11-13T11:19:59;6.70;99.90
17986;DHT22;9118;48.122;11.546;2022-11-13T11:22:33;6.70;99.90
17986;DHT22;9118;48.122;11.546;2022-11-13T11:25:08;6.60;99.90
17986;DHT22;9118;48.122;11.546;2022-11-13T11:27:40;6.80;99.90
17986;DHT22;9118;48.122;11.546;2022-11-13T11:30:18;7.00;99.90
17986;DHT22;9118;48.122;11.546;2022-11-13T11:32:52;7.30;99.90
17986;DHT22;9118;48.122;11.546;2022-11-13T11:35:34;7.50;99.90
17986;DHT22;9118;48.122;11.546;2022-11-13T11:38:10;7.60;99.90
17986;DHT22;9118;48.122;11.546;2022-11-13T11:40:41;7.60;99.90
17986;DHT22;9118;48.122;11.546;2022-11-13T11:43:15;7.50;99.90
17986;DHT22;9118;48.122;11.546;2022-11-13T11:45:45;7.30;99.90
17986;DHT22;9118;48.122;11.546;2022-11-13T11:48:15;7.30;99.90
17986;DHT22;9118;48.122;11.546;2022-11-13T11:50:49;7.10;99.90
17986;DHT22;9118;48.122;11.546;2022-11-13T11:53:28;7.20;99.90
17986;DHT22;9118;48.122;11.546;2022-11-13T11:56:06;7.30;99.90
17986;DHT22;9118;48.122;11.546;2022-11-13T11:59:12;7.40;99.90
17986;DHT22;9118;48.122;11.546;2022-11-13T12:02:11;7.70;99.90
17986;DHT22;9118;48.122;11.546;2022-11-13T12:04:51;7.90;99.90
17986;DHT22;9118;48.122;11.546;2022-11-13T12:07:32;7.80;99.90
17986;DHT22;9118;48.122;11.546;2022-11-13T12:10:16;7.80;99.90
17986;DHT22;9118;48.122;11.546;2022-11-13T12:12:56;7.80;99.90
17986;DHT22;9118;48.122;11.546;2022-11-13T12:15:34;7.90;99.90
17986;DHT22;9118;48.122;11.546;2022-11-13T12:18:13;8.10;99.90
17986;DHT22;9118;48.122;11.546;2022-11-13T12:20:45;8.20;99.90
17986;DHT22;9118;48.122;11.546;2022-11-13T12:23:25;8.40;99.90
17986;DHT22;9118;48.122;11.546;2022-11-13T12:26:02;9.60;99.90
17986;DHT22;9118;48.122;11.546;2022-11-13T12:28:37;8.60;99.90
17986;DHT22;9118;48.122;11.546;2022-11-13T12:31:14;8.70;99.90
17986;DHT22;9118;48.122;11.546;2022-11-13T12:33:50;8.80;99.90
17986;DHT22;9118;48.122;11.546;2022-11-13T12:36:19;8.80;99.90
17986;DHT22;9118;48.122;11.546;2022-11-13T12:38:51;8.80;99.90
17986;DHT22;9118;48.122;11.546;2022-11-13T12:41:27;8.90;99.90
17986;DHT22;9118;48.122;11.546;2022-11-13T12:44:07;8.90;99.90
17986;DHT22;9118;48.122;11.546;2022-11-13T12:46:40;8.90;99.90
17986;DHT22;9118;48.122;11.546;2022-11-13T12:49:30;9.00;99.90
17986;DHT22;9118;48.122;11.546;2022-11-13T12:52:00;9.10;99.90
17986;DHT22;9118;48.122;11.546;2022-11-13T12:54:29;9.20;99.90
17986;DHT22;9118;48.122;11.546;2022-11-13T12:57:19;9.20;99.90
17986;DHT22;9118;48.122;11.546;2022-11-13T12:59:50;9.30;99.90
17986;DHT22;9118;48.122;11.546;2022-11-13T13:02:45;9.30;99.90
17986;DHT22;9118;48.122;11.546;2022-11-13T13:05:22;9.30;99.90
17986;DHT22;9118;48.122;11.546;2022-11-13T13:11:03;9.30;99.90
17986;DHT22;9118;48.122;11.546;2022-11-13T13:13:45;9.30;99.90
17986;DHT22;9118;48.122;11.546;2022-11-13T13:16:22;9.30;99.90
17986;DHT22;9118;48.122;11.546;2022-11-13T13:18:50;9.40;99.90
17986;DHT22;9118;48.122;11.546;2022-11-13T13:21:19;9.50;99.90
17986;DHT22;9118;48.122;11.546;2022-11-13T13:23:48;9.40;99.90
17986;DHT22;9118;48.122;11.546;2022-11-13T13:26:20;10.10;99.90
17986;DHT22;9118;48.122;11.546;2022-11-13T13:28:51;9.50;99.90
17986;DHT22;9118;48.122;11.546;2022-11-13T13:31:30;9.50;99.90
17986;DHT22;9118;48.122;11.546;2022-11-13T13:34:13;9.60;99.90
17986;DHT22;9118;48.122;11.546;2022-11-13T13:36:49;9.60;99.90
17986;DHT22;9118;48.122;11.546;2022-11-13T13:39:27;9.70;99.90
17986;DHT22;9118;48.122;11.546;2022-11-13T13:42:09;9.70;99.90
17986;DHT22;9118;48.122;11.546;2022-11-13T13:44:59;9.70;99.90
17986;DHT22;9118;48.122;11.546;2022-11-13T13:47:31;9.70;99.90
17986;DHT22;9118;48.122;11.546;2022-11-13T13:50:05;9.70;99.90
17986;DHT22;9118;48.122;11.546;2022-11-13T13:52:34;9.70;99.90
17986;DHT22;9118;48.122;11.546;2022-11-13T13:55:05;9.70;99.90
17986;DHT22;9118;48.122;11.546;2022-11-13T13:57:38;9.70;99.90
17986;DHT22;9118;48.122;11.546;2022-11-13T14:00:12;10.60;99.90
17986;DHT22;9118;48.122;11.546;2022-11-13T14:02:45;9.80;99.90
17986;DHT22;9118;48.122;11.546;2022-11-13T14:05:27;9.90;99.90
17986;DHT22;9118;48.122;11.546;2022-11-13T14:07:55;9.70;99.90
17986;DHT22;9118;48.122;11.546;2022-11-13T14:10:24;8.90;99.90
17986;DHT22;9118;48.122;11.546;2022-11-13T14:12:53;9.80;99.90
17986;DHT22;9118;48.122;11.546;2022-11-13T14:15:26;9.70;99.90
17986;DHT22;9118;48.122;11.546;2022-11-13T14:18:04;9.80;99.90
17986;DHT22;9118;48.122;11.546;2022-11-13T14:20:41;9.80;99.90
17986;DHT22;9118;48.122;11.546;2022-11-13T14:23:13;9.70;99.90
17986;DHT22;9118;48.122;11.546;2022-11-13T14:25:41;9.70;99.90
17986;DHT22;9118;48.122;11.546;2022-11-13T14:28:16;9.70;99.90
17986;DHT22;9118;48.122;11.546;2022-11-13T14:30:52;9.70;99.90
17986;DHT22;9118;48.122;11.546;2022-11-13T14:33:23;9.70;99.90
17986;DHT22;9118;48.122;11.546;2022-11-13T14:35:54;9.70;99.90
17986;DHT22;9118;48.122;11.546;2022-11-13T14:38:24;9.70;99.90
17986;DHT22;9118;48.122;11.546;2022-11-13T14:40:54;9.70;99.90
17986;DHT22;9118;48.122;11.546;2022-11-13T14:43:24;9.70;99.90
17986;DHT22;9118;48.122;11.546;2022-11-13T14:45:55;9.70;99.90
17986;DHT22;9118;48.122;11.546;2022-11-13T14:48:24;9.70;99.90
17986;DHT22;9118;48.122;11.546;2022-11-13T14:50:54;9.70;99.90
17986;DHT22;9118;48.122;11.546;2022-11-13T14:53:26;9.60;99.90
17986;DHT22;9118;48.122;11.546;2022-11-13T14:55:56;8.90;99.90
17986;DHT22;9118;48.122;11.546;2022-11-13T14:58:29;9.60;99.90
17986;DHT22;9118;48.122;11.546;2022-11-13T15:01:10;9.50;99.90
17986;DHT22;9118;48.122;11.546;2022-11-13T15:03:37;9.60;99.90
17986;DHT22;9118;48.122;11.546;2022-11-13T15:06:09;9.50;99.90
17986;DHT22;9118;48.122;11.546;2022-11-13T15:08:38;9.50;99.90
17986;DHT22;9118;48.122;11.546;2022-11-13T15:11:07;9.60;99.90
17986;DHT22;9118;48.122;11.546;2022-11-13T15:13:34;9.40;99.90
17986;DHT22;9118;48.122;11.546;2022-11-13T15:16:04;9.50;99.90
17986;DHT22;9118;48.122;11.546;2022-11-13T15:18:32;9.50;99.90
17986;DHT22;9118;48.122;11.546;2022-11-13T15:21:00;9.50;99.90
17986;DHT22;9118;48.122;11.546;2022-11-13T15:23:27;9.40;99.90
17986;DHT22;9118;48.122;11.546;2022-11-13T15:25:55;9.40;99.90
17986;DHT22;9118;48.122;11.546;2022-11-13T15:28:23;9.40;99.90
17986;DHT22;9118;48.122;11.546;2022-11-13T15:30:51;9.30;99.90
17986;DHT22;9118;48.122;11.546;2022-11-13T15:33:19;9.30;99.90
17986;DHT22;9118;48.122;11.546;2022-11-13T15:35:48;9.30;99.90
17986;DHT22;9118;48.122;11.546;2022-11-13T15:38:15;9.20;99.90
17986;DHT22;9118;48.122;11.546;2022-11-13T15:40:43;9.20;99.90
17986;DHT22;9118;48.122;11.546;2022-11-13T15:43:15;9.20;99.90
17986;DHT22;9118;48.122;11.546;2022-11-13T15:45:44;9.20;99.90
17986;DHT22;9118;48.122;11.546;2022-11-13T15:48:11;9.10;99.90
17986;DHT22;9118;48.122;11.546;2022-11-13T15:50:42;9.10;99.90
17986;DHT22;9118;48.122;11.546;2022-11-13T15:53:11;9.10;99.90
17986;DHT22;9118;48.122;11.546;2022-11-13T15:55:39;9.00;99.90
17986;DHT22;9118;48.122;11.546;2022-11-13T15:58:13;9.00;99.90
17986;DHT22;9118;48.122;11.546;2022-11-13T16:00:40;9.00;99.90
17986;DHT22;9118;48.122;11.546;2022-11-13T16:03:08;9.00;99.90
17986;DHT22;9118;48.122;11.546;2022-11-13T16:05:37;8.90;99.90
17986;DHT22;9118;48.122;11.546;2022-11-13T16:08:11;8.90;99.90
17986;DHT22;9118;48.122;11.546;2022-11-13T16:10:39;8.80;99.90